createdAt,value
2019-02-19T05:00:53.140Z,9.70
2019-02-19T05:01:52.947Z,21.60
2019-02-19T05:03:45.635Z,21.60
2019-02-19T05:04:45.506Z,21.20
2019-02-19T05:06:38.174Z,21.00
2019-02-19T05:07:38.059Z,21.40
2019-02-19T05:09:30.746Z,21.80
2019-02-19T05:10:30.613Z,22.00
2019-02-19T05:12:23.278Z,21.50
2019-02-19T05:13:23.179Z,22.50
2019-02-19T05:15:15.846Z,21.80
2019-02-19T05:16:15.715Z,20.60
2019-02-19T05:18:08.389Z,20.70
2019-02-19T05:19:08.272Z,19.30
2019-02-19T05:21:00.959Z,19.40
2019-02-19T05:22:00.844Z,20.00
2019-02-19T05:23:53.496Z,19.40
2019-02-19T05:24:53.387Z,19.70
2019-02-19T05:26:46.067Z,20.40
2019-02-19T05:27:45.940Z,19.00
2019-02-19T05:29:38.596Z,19.70
2019-02-19T05:30:38.484Z,19.00
2019-02-19T05:32:31.185Z,18.70
2019-02-19T05:33:31.059Z,19.40
2019-02-19T05:35:23.734Z,18.60
2019-02-19T05:36:23.609Z,18.00
2019-02-19T05:38:16.279Z,18.90
2019-02-19T05:39:16.161Z,18.30
2019-02-19T05:41:08.846Z,18.10
2019-02-19T05:42:08.713Z,19.20
2019-02-19T05:44:01.376Z,18.70
2019-02-19T05:45:01.269Z,19.20
2019-02-19T05:46:53.959Z,18.40
2019-02-19T05:47:53.831Z,18.00
2019-02-19T05:49:46.488Z,18.50
2019-02-19T05:50:46.377Z,18.20
2019-02-19T05:52:39.068Z,17.90
2019-02-19T05:53:38.931Z,19.20
2019-02-19T05:55:31.609Z,19.30
2019-02-19T05:56:31.480Z,18.30
2019-02-19T05:58:24.166Z,18.30
2019-02-19T05:59:24.038Z,18.90
2019-02-19T06:01:16.703Z,19.10
2019-02-19T06:02:16.586Z,18.80
2019-02-19T06:04:09.285Z,19.00
2019-02-19T06:05:09.159Z,19.20
2019-02-19T06:07:01.817Z,18.50
2019-02-19T06:08:01.709Z,19.20
2019-02-19T06:09:54.387Z,20.00
2019-02-19T06:10:54.254Z,18.80
2019-02-19T06:12:46.926Z,20.20
2019-02-19T06:13:46.820Z,21.00
2019-02-19T06:15:39.493Z,19.60
2019-02-19T06:16:39.361Z,20.40
2019-02-19T06:18:32.028Z,20.00
2019-02-19T06:19:31.921Z,19.90
2019-02-19T06:21:24.600Z,21.20
2019-02-19T06:22:24.471Z,20.70
2019-02-19T06:24:17.139Z,19.80
2019-02-19T06:25:17.033Z,21.00
2019-02-19T06:27:09.710Z,21.00
2019-02-19T06:28:09.572Z,21.10
2019-02-19T06:30:02.239Z,20.80
2019-02-19T06:31:02.129Z,20.50
2019-02-19T06:32:54.810Z,22.00
2019-02-19T06:33:54.688Z,22.00
2019-02-19T06:35:47.342Z,21.60
2019-02-19T06:36:47.236Z,22.40
2019-02-19T06:38:39.921Z,22.90
2019-02-19T06:39:39.798Z,21.30
2019-02-19T06:41:32.503Z,21.80
2019-02-19T06:42:32.354Z,21.40
2019-02-19T06:44:25.047Z,21.00
2019-02-19T06:45:24.892Z,21.30
2019-02-19T06:47:17.582Z,21.90
2019-02-19T06:48:17.470Z,21.60
2019-02-19T06:50:10.149Z,21.90
2019-02-19T06:51:10.028Z,21.60
2019-02-19T06:53:02.719Z,22.30
2019-02-19T06:54:02.585Z,23.30
2019-02-19T06:55:55.263Z,22.30
2019-02-19T06:56:55.134Z,20.50
2019-02-19T06:58:47.826Z,20.40
2019-02-19T06:59:47.691Z,20.90
2019-02-19T07:01:40.369Z,21.60
2019-02-19T07:02:40.256Z,21.60
2019-02-19T07:04:32.931Z,20.70
2019-02-19T07:05:32.807Z,20.80
2019-02-19T07:07:25.478Z,21.80
2019-02-19T07:08:25.371Z,21.00
2019-02-19T07:10:18.055Z,20.30
2019-02-19T07:11:17.959Z,21.20
2019-02-19T07:13:10.693Z,21.70
2019-02-19T07:14:10.540Z,21.60
2019-02-19T07:16:03.245Z,20.40
2019-02-19T07:17:03.107Z,20.50
2019-02-19T07:18:55.823Z,21.10
2019-02-19T07:19:55.660Z,21.50
2019-02-19T07:21:48.396Z,20.30
2019-02-19T07:22:48.256Z,20.50
2019-02-19T07:24:41.038Z,20.40
2019-02-19T07:25:40.859Z,20.10
2019-02-19T07:27:33.583Z,20.80
2019-02-19T07:28:33.423Z,20.40
2019-02-19T07:30:26.228Z,19.90
2019-02-19T07:31:26.029Z,20.10
2019-02-19T07:33:18.735Z,19.50
2019-02-19T07:34:18.662Z,20.00
2019-02-19T07:36:11.311Z,20.70
2019-02-19T07:37:11.197Z,20.50
2019-02-19T07:39:03.838Z,21.20
2019-02-19T07:40:03.769Z,21.60
2019-02-19T07:41:56.419Z,20.20
2019-02-19T07:42:56.291Z,20.00
2019-02-19T07:44:48.957Z,19.90
2019-02-19T07:45:48.842Z,20.30
2019-02-19T07:47:41.521Z,19.90
2019-02-19T07:48:41.401Z,19.60
2019-02-19T07:50:34.066Z,21.30
2019-02-19T07:51:33.946Z,19.90
2019-02-19T07:53:26.635Z,20.10
2019-02-19T07:54:26.509Z,20.70
2019-02-19T07:56:19.193Z,20.80
2019-02-19T07:57:19.061Z,22.30
2019-02-19T07:59:11.718Z,20.70
2019-02-19T08:00:11.608Z,20.60
2019-02-19T08:02:04.301Z,20.60
2019-02-19T08:03:05.083Z,21.00
2019-02-19T08:04:56.843Z,20.50
2019-02-19T08:05:56.727Z,19.90
2019-02-19T08:07:49.505Z,20.40
2019-02-19T08:08:49.347Z,19.50
2019-02-19T08:10:42.006Z,19.80
2019-02-19T08:11:41.932Z,20.10
2019-02-19T08:13:34.664Z,19.30
2019-02-19T08:14:34.517Z,18.60
2019-02-19T08:16:27.167Z,19.70
2019-02-19T08:17:33.115Z,20.10
2019-02-19T08:19:19.749Z,19.00
2019-02-19T08:20:19.612Z,19.00
2019-02-19T08:22:12.337Z,19.20
2019-02-19T08:23:12.210Z,17.10
2019-02-19T08:25:04.888Z,19.20
2019-02-19T08:26:04.759Z,18.80
2019-02-19T08:27:57.451Z,17.80
2019-02-19T08:29:04.227Z,18.40
2019-02-19T08:30:50.157Z,18.40
2019-02-19T08:31:50.082Z,17.10
2019-02-19T08:33:42.698Z,16.50
2019-02-19T08:34:42.583Z,16.90
2019-02-19T08:36:35.265Z,15.80
2019-02-19T08:37:35.142Z,15.20
2019-02-19T08:39:27.810Z,16.50
2019-02-19T08:40:27.703Z,15.60
2019-02-19T08:42:20.377Z,15.50
2019-02-19T08:43:20.250Z,15.50
2019-02-19T08:45:12.915Z,15.10
2019-02-19T08:46:12.809Z,15.80
2019-02-19T08:48:05.489Z,15.30
2019-02-19T08:49:05.361Z,14.70
2019-02-19T08:50:58.029Z,14.90
2019-02-19T08:51:57.918Z,14.10
2019-02-19T08:53:50.603Z,14.60
2019-02-19T08:54:50.481Z,14.80
2019-02-19T08:56:43.176Z,14.80
2019-02-19T08:57:43.037Z,14.10
2019-02-19T08:59:35.723Z,13.20
2019-02-19T09:00:35.606Z,14.20
2019-02-19T09:02:28.294Z,13.00
2019-02-19T09:03:28.160Z,13.90
2019-02-19T09:05:20.837Z,14.20
2019-02-19T09:06:20.715Z,14.80
2019-02-19T09:09:13.280Z,14.10
2019-02-19T09:11:05.948Z,13.20
2019-02-19T09:12:05.853Z,14.10
2019-02-19T09:13:58.521Z,14.30
2019-02-19T09:14:58.398Z,13.10
2019-02-19T09:16:51.057Z,13.70
2019-02-19T09:17:52.264Z,14.40
2019-02-19T09:19:43.632Z,13.90
2019-02-19T09:20:43.561Z,13.50
2019-02-19T09:22:36.180Z,13.80
2019-02-19T09:23:36.069Z,13.30
2019-02-19T09:25:28.755Z,13.60
2019-02-19T09:26:28.622Z,13.90
2019-02-19T09:28:21.297Z,12.80
2019-02-19T09:29:21.178Z,13.80
2019-02-19T09:31:13.880Z,13.70
2019-02-19T09:32:13.747Z,14.50
2019-02-19T09:34:06.414Z,13.10
2019-02-19T09:35:06.303Z,13.60
2019-02-19T09:36:58.988Z,13.50
2019-02-19T09:37:58.851Z,13.10
2019-02-19T09:39:51.557Z,14.10
2019-02-19T09:40:51.438Z,13.90
2019-02-19T09:42:44.168Z,14.20
2019-02-19T09:43:44.090Z,14.00
2019-02-19T09:45:36.764Z,13.50
2019-02-19T09:46:36.656Z,13.30
2019-02-19T09:48:29.297Z,13.50
2019-02-19T09:49:29.217Z,13.80
2019-02-19T09:51:21.892Z,12.60
2019-02-19T09:52:21.781Z,12.40
2019-02-19T09:54:14.446Z,13.40
2019-02-19T09:55:14.466Z,12.80
2019-02-19T09:57:07.036Z,13.30
2019-02-19T09:58:06.979Z,12.80
2019-02-19T09:59:59.624Z,13.20
2019-02-19T10:00:59.483Z,12.20
2019-02-19T10:02:52.282Z,11.20
2019-02-19T10:03:52.106Z,11.70
2019-02-19T10:05:44.818Z,11.20
2019-02-19T10:06:44.758Z,11.90
2019-02-19T10:08:37.411Z,12.40
2019-02-19T10:09:37.292Z,12.30
2019-02-19T10:11:29.983Z,10.50
2019-02-19T10:12:29.846Z,10.50
2019-02-19T10:14:22.540Z,10.20
2019-02-19T10:15:22.413Z,10.60
2019-02-19T10:17:15.091Z,11.00
2019-02-19T10:18:14.983Z,10.70
2019-02-19T10:20:07.664Z,10.40
2019-02-19T10:21:07.583Z,10.50
2019-02-19T10:23:00.247Z,9.80
2019-02-19T10:24:00.170Z,10.10
2019-02-19T10:25:52.773Z,10.50
2019-02-19T10:26:52.652Z,10.10
2019-02-19T10:28:45.317Z,9.30
2019-02-19T10:29:45.205Z,9.70
2019-02-19T10:31:37.884Z,9.80
2019-02-19T10:32:37.783Z,10.10
2019-02-19T10:34:30.431Z,10.00
2019-02-19T10:35:30.322Z,9.70
2019-02-19T10:37:23.020Z,9.50
2019-02-19T10:38:22.920Z,9.40
2019-02-19T10:40:15.568Z,8.90
2019-02-19T10:41:15.457Z,9.40
2019-02-19T10:43:08.155Z,9.00
2019-02-19T10:44:08.037Z,8.60
2019-02-19T10:46:00.712Z,8.20
2019-02-19T10:47:00.606Z,8.80
2019-02-19T10:48:53.297Z,7.80
2019-02-19T10:49:53.175Z,7.40
2019-02-19T10:51:45.837Z,7.70
2019-02-19T10:52:45.729Z,7.60
2019-02-19T10:54:38.432Z,8.10
2019-02-19T10:55:38.308Z,8.30
2019-02-19T10:57:30.978Z,8.50
2019-02-19T10:58:30.870Z,8.50
2019-02-19T11:00:23.549Z,8.40
2019-02-19T11:01:23.435Z,8.80
2019-02-19T11:03:16.101Z,8.80
2019-02-19T11:04:15.993Z,8.50
2019-02-19T11:06:08.677Z,7.60
2019-02-19T11:07:08.551Z,8.20
2019-02-19T11:09:01.221Z,8.70
2019-02-19T11:10:01.110Z,7.80
2019-02-19T11:11:53.794Z,8.20
2019-02-19T11:12:53.682Z,7.90
2019-02-19T11:14:46.361Z,9.20
2019-02-19T11:15:46.237Z,8.50
2019-02-19T11:17:38.902Z,8.20
2019-02-19T11:18:38.795Z,8.20
2019-02-19T11:20:31.477Z,8.20
2019-02-19T11:21:31.354Z,8.50
2019-02-19T11:23:24.021Z,8.60
2019-02-19T11:24:23.909Z,8.80
2019-02-19T11:26:16.605Z,9.00
2019-02-19T11:27:16.909Z,8.90
2019-02-19T11:29:09.176Z,9.00
2019-02-19T11:30:09.039Z,9.00
2019-02-19T11:32:02.696Z,9.00
2019-02-19T11:33:02.510Z,8.90
2019-02-19T11:34:55.219Z,8.80
2019-02-19T11:35:55.041Z,9.20
2019-02-19T11:37:47.750Z,9.80
2019-02-19T11:38:47.663Z,9.50
2019-02-19T11:40:40.290Z,8.70
2019-02-19T11:41:40.186Z,8.50
2019-02-19T11:43:33.219Z,8.80
2019-02-19T11:44:32.765Z,9.00
2019-02-19T11:46:25.443Z,8.70
2019-02-19T11:47:26.718Z,8.90
2019-02-19T11:49:18.046Z,8.10
2019-02-19T11:50:17.943Z,8.90
2019-02-19T11:52:10.599Z,9.00
2019-02-19T11:53:10.490Z,8.50
2019-02-19T11:55:03.209Z,8.00
2019-02-19T11:56:03.065Z,8.00
2019-02-19T11:57:55.853Z,8.60
2019-02-19T11:58:55.668Z,8.00
2019-02-19T12:00:48.443Z,7.80
2019-02-19T12:01:48.287Z,8.00
2019-02-19T12:03:40.989Z,8.20
2019-02-19T12:04:40.882Z,7.30
2019-02-19T12:06:33.571Z,7.90
2019-02-19T12:07:33.445Z,7.90
2019-02-19T12:09:26.179Z,7.80
2019-02-19T12:10:26.163Z,8.00
2019-02-19T12:12:18.827Z,7.80
2019-02-19T12:13:18.660Z,7.90
2019-02-19T12:15:11.353Z,7.80
2019-02-19T12:16:11.238Z,7.90
2019-02-19T12:18:03.929Z,7.50
2019-02-19T12:19:03.797Z,8.40
2019-02-19T12:20:56.467Z,8.30
2019-02-19T12:21:56.361Z,8.30
2019-02-19T12:23:49.045Z,8.30
2019-02-19T12:24:48.924Z,8.00
2019-02-19T12:26:41.624Z,7.90
2019-02-19T12:27:41.486Z,8.60
2019-02-19T12:29:34.169Z,8.60
2019-02-19T12:30:34.059Z,7.90
2019-02-19T12:32:26.734Z,9.00
2019-02-19T12:33:26.609Z,8.30
2019-02-19T12:35:19.322Z,8.20
2019-02-19T12:36:19.163Z,8.30
2019-02-19T12:38:11.831Z,8.70
2019-02-19T12:39:11.730Z,8.70
2019-02-19T12:41:04.412Z,8.10
2019-02-19T12:42:04.292Z,8.60
2019-02-19T12:43:56.986Z,8.70
2019-02-19T12:44:56.851Z,8.90
2019-02-19T12:46:49.544Z,8.50
2019-02-19T12:47:49.415Z,9.10
2019-02-19T12:49:42.082Z,8.80
2019-02-19T12:50:41.969Z,9.20
2019-02-19T12:52:34.659Z,8.90
2019-02-19T12:53:34.534Z,9.70
2019-02-19T12:55:27.199Z,8.90
2019-02-19T12:56:27.090Z,9.30
2019-02-19T12:58:19.774Z,8.60
2019-02-19T12:59:19.650Z,9.30
2019-02-19T13:01:12.319Z,9.20
2019-02-19T13:02:12.209Z,9.10
2019-02-19T13:04:04.901Z,9.60
2019-02-19T13:05:04.779Z,8.90
2019-02-19T13:06:57.454Z,9.20
2019-02-19T13:07:57.339Z,9.70
2019-02-19T13:09:50.030Z,9.40
2019-02-19T13:10:49.920Z,9.40
2019-02-19T13:12:42.573Z,9.20
2019-02-19T13:13:42.461Z,9.90
2019-02-19T13:15:35.152Z,8.80
2019-02-19T13:16:35.023Z,8.50
2019-02-19T13:18:27.716Z,8.30
2019-02-19T13:19:27.588Z,8.20
2019-02-19T13:21:20.282Z,8.60
2019-02-19T13:22:20.177Z,8.60
2019-02-19T13:24:12.860Z,8.50
2019-02-19T13:25:12.736Z,8.10
2019-02-19T13:27:05.399Z,8.90
2019-02-19T13:28:05.291Z,8.70
2019-02-19T13:29:57.977Z,9.10
2019-02-19T13:30:57.850Z,8.70
2019-02-19T13:32:50.544Z,8.60
2019-02-19T13:33:50.415Z,8.90
2019-02-19T13:35:43.107Z,8.50
2019-02-19T13:36:42.982Z,8.60
2019-02-19T13:38:35.649Z,8.50
2019-02-19T13:39:35.555Z,9.20
2019-02-19T13:41:28.245Z,9.70
2019-02-19T13:42:28.114Z,9.10
2019-02-19T13:44:20.821Z,9.00
2019-02-19T13:45:20.697Z,8.50
2019-02-19T13:47:13.433Z,8.80
2019-02-19T13:48:13.275Z,8.90
2019-02-19T13:50:06.069Z,8.70
2019-02-19T13:51:05.843Z,8.50
2019-02-19T13:52:58.585Z,8.70
2019-02-19T13:53:58.524Z,8.40
2019-02-19T13:55:51.188Z,8.70
2019-02-19T13:56:51.069Z,8.60
2019-02-19T13:58:43.820Z,8.90
2019-02-19T13:59:43.686Z,8.50
2019-02-19T14:01:36.561Z,8.10
2019-02-19T14:02:36.418Z,8.00
2019-02-19T14:04:29.161Z,7.70
2019-02-19T14:05:29.002Z,7.40
2019-02-19T14:07:21.662Z,7.30
2019-02-19T14:08:21.534Z,7.20
2019-02-19T14:10:14.249Z,7.40
2019-02-19T14:11:14.118Z,7.50
2019-02-19T14:13:06.785Z,7.10
2019-02-19T14:14:06.684Z,7.00
2019-02-19T14:15:59.423Z,6.60
2019-02-19T14:16:59.326Z,7.40
2019-02-19T14:18:51.976Z,7.30
2019-02-19T14:19:51.863Z,6.70
2019-02-19T14:21:44.775Z,7.10
2019-02-19T14:22:44.433Z,6.50
2019-02-19T14:24:37.144Z,7.40
2019-02-19T14:25:37.014Z,7.00
2019-02-19T14:27:29.841Z,6.50
2019-02-19T14:28:29.655Z,7.10
2019-02-19T14:30:22.335Z,7.20
2019-02-19T14:31:22.224Z,6.90
2019-02-19T14:33:14.915Z,6.90
2019-02-19T14:34:14.817Z,6.90
2019-02-19T14:36:07.466Z,6.90
2019-02-19T14:37:07.348Z,6.70
2019-02-19T14:39:00.039Z,7.00
2019-02-19T14:39:59.931Z,6.90
2019-02-19T14:41:52.579Z,6.90
2019-02-19T14:42:52.472Z,6.90
2019-02-19T14:44:45.302Z,7.30
2019-02-19T14:45:45.075Z,7.00
2019-02-19T14:47:37.810Z,6.90
2019-02-19T14:48:37.693Z,6.80
2019-02-19T14:50:30.366Z,6.60
2019-02-19T14:51:30.351Z,6.50
2019-02-19T14:53:22.921Z,7.20
2019-02-19T14:54:22.820Z,6.80
2019-02-19T14:56:15.503Z,6.70
2019-02-19T14:57:15.366Z,5.90
2019-02-19T14:59:08.195Z,6.90
2019-02-19T15:00:07.933Z,6.80
2019-02-19T15:02:00.613Z,6.70
2019-02-19T15:03:00.487Z,6.70
2019-02-19T15:04:53.182Z,6.50
2019-02-19T15:05:53.074Z,7.20
2019-02-19T15:07:45.764Z,5.90
2019-02-19T15:08:45.624Z,6.30
2019-02-19T15:10:38.309Z,6.50
2019-02-19T15:11:38.208Z,6.20
2019-02-19T15:13:30.890Z,5.70
2019-02-19T15:14:30.763Z,6.30
2019-02-19T15:16:23.438Z,6.10
2019-02-19T15:17:23.322Z,7.20
2019-02-19T15:19:19.925Z,5.90
2019-02-19T15:20:15.884Z,6.10
2019-02-19T15:22:08.553Z,5.40
2019-02-19T15:23:08.442Z,5.70
2019-02-19T15:25:01.140Z,5.30
2019-02-19T15:26:01.010Z,5.00
2019-02-19T15:27:53.724Z,5.10
2019-02-19T15:28:53.568Z,4.70
2019-02-19T15:30:46.254Z,4.90
2019-02-19T15:31:46.139Z,4.80
2019-02-19T15:33:39.296Z,4.80
2019-02-19T15:34:38.691Z,4.50
2019-02-19T15:36:31.390Z,4.50
2019-02-19T15:37:31.253Z,4.70
2019-02-19T15:39:23.962Z,4.20
2019-02-19T15:40:23.818Z,4.80
2019-02-19T15:42:16.491Z,3.80
2019-02-19T15:43:16.692Z,4.60
2019-02-19T15:45:09.665Z,4.20
2019-02-19T15:46:08.939Z,4.70
2019-02-19T15:48:01.619Z,3.70
2019-02-19T15:49:01.502Z,4.10
2019-02-19T15:50:54.195Z,3.80
2019-02-19T15:51:54.055Z,3.70
2019-02-19T15:53:46.728Z,3.60
2019-02-19T15:54:46.614Z,3.40
2019-02-19T15:56:39.313Z,3.30
2019-02-19T15:57:39.177Z,4.00
2019-02-19T15:59:31.854Z,3.50
2019-02-19T16:00:31.745Z,3.30
2019-02-19T16:02:24.457Z,3.40
2019-02-19T16:03:24.336Z,3.60
2019-02-19T16:05:16.981Z,2.90
2019-02-19T16:06:16.870Z,2.80
2019-02-19T16:08:09.551Z,3.10
2019-02-19T16:09:09.443Z,2.90
2019-02-19T16:11:02.100Z,3.30
2019-02-19T16:12:01.991Z,2.90
2019-02-19T16:13:55.564Z,3.10
2019-02-19T16:14:54.554Z,2.60
2019-02-19T16:16:47.238Z,3.00
2019-02-19T16:17:47.112Z,3.10
2019-02-19T16:19:39.797Z,3.20
2019-02-19T16:20:39.667Z,2.80
2019-02-19T16:22:32.363Z,3.10
2019-02-19T16:23:32.231Z,3.50
2019-02-19T16:25:24.900Z,2.90
2019-02-19T16:26:24.777Z,3.10
2019-02-19T16:28:17.465Z,2.70
2019-02-19T16:29:17.344Z,3.10
2019-02-19T16:31:10.005Z,2.80
2019-02-19T16:32:09.894Z,2.70
2019-02-19T16:34:02.585Z,2.80
2019-02-19T16:35:02.448Z,3.70
2019-02-19T16:36:55.124Z,3.10
2019-02-19T16:37:55.004Z,3.10
2019-02-19T16:39:47.715Z,3.20
2019-02-19T16:40:47.556Z,3.20
2019-02-19T16:42:40.237Z,3.30
2019-02-19T16:43:40.111Z,3.30
2019-02-19T16:45:32.814Z,3.70
2019-02-19T16:46:32.722Z,3.10
2019-02-19T16:48:25.338Z,3.60
2019-02-19T16:49:25.232Z,3.50
2019-02-19T16:51:17.920Z,3.20
2019-02-19T16:52:17.786Z,4.00
2019-02-19T16:54:10.451Z,3.70
2019-02-19T16:55:10.346Z,3.70
2019-02-19T16:57:03.027Z,4.80
2019-02-19T16:58:02.899Z,4.70
2019-02-19T16:59:55.561Z,3.60
2019-02-19T17:00:55.454Z,3.10
2019-02-19T17:02:48.138Z,3.80
2019-02-19T17:03:48.008Z,4.00
2019-02-19T17:05:42.407Z,5.20
2019-02-19T17:06:40.569Z,7.20
2019-02-19T17:08:33.247Z,4.00
2019-02-19T17:09:33.119Z,4.00
2019-02-19T17:11:25.789Z,3.10
2019-02-19T17:12:25.669Z,3.50
2019-02-19T17:14:18.374Z,2.90
2019-02-19T17:15:18.236Z,3.10
2019-02-19T17:17:10.933Z,3.80
2019-02-19T17:18:10.784Z,3.50
2019-02-19T17:20:03.456Z,3.60
2019-02-19T17:21:03.328Z,3.80
2019-02-19T17:22:56.007Z,3.60
2019-02-19T17:23:55.879Z,3.60
2019-02-19T17:25:48.562Z,3.80
2019-02-19T17:26:48.430Z,3.30
2019-02-19T17:28:41.095Z,3.60
2019-02-19T17:29:40.980Z,3.60
2019-02-19T17:31:33.677Z,3.80
2019-02-19T17:32:33.540Z,3.40
2019-02-19T17:34:26.206Z,3.40
2019-02-19T17:35:26.091Z,3.90
2019-02-19T17:37:18.785Z,4.10
2019-02-19T17:38:18.653Z,4.10
2019-02-19T17:40:11.331Z,4.20
2019-02-19T17:41:11.210Z,3.60
2019-02-19T17:43:03.876Z,3.80
2019-02-19T17:44:03.759Z,3.90
2019-02-19T17:45:56.443Z,3.90
2019-02-19T17:46:56.311Z,4.00
2019-02-19T17:48:48.995Z,3.50
2019-02-19T17:49:48.861Z,4.20
2019-02-19T17:51:41.551Z,3.90
2019-02-19T17:52:41.420Z,3.50
2019-02-19T17:54:34.096Z,4.00
2019-02-19T17:55:33.964Z,4.10
2019-02-19T17:57:26.651Z,4.10
2019-02-19T17:58:26.525Z,3.80
2019-02-19T18:00:19.183Z,3.90
2019-02-19T18:01:19.068Z,3.80
2019-02-19T18:03:11.780Z,3.50
2019-02-19T18:04:11.635Z,4.20
2019-02-19T18:06:04.301Z,4.20
2019-02-19T18:07:04.180Z,4.60
2019-02-19T18:08:56.873Z,3.90
2019-02-19T18:09:56.733Z,4.40
2019-02-19T18:11:49.420Z,4.40
2019-02-19T18:12:49.286Z,4.50
2019-02-19T18:14:41.977Z,4.40
2019-02-19T18:15:41.845Z,5.00
2019-02-19T18:17:34.512Z,4.40
2019-02-19T18:18:34.399Z,4.40
2019-02-19T18:20:27.080Z,4.50
2019-02-19T18:21:26.953Z,4.30
2019-02-19T18:23:19.616Z,4.60
2019-02-19T18:24:19.500Z,4.50
2019-02-19T18:26:12.183Z,3.70
2019-02-19T18:27:12.059Z,4.20
2019-02-19T18:29:04.721Z,4.50
2019-02-19T18:30:04.612Z,4.40
2019-02-19T18:31:57.302Z,4.00
2019-02-19T18:32:57.165Z,3.90
2019-02-19T18:34:49.834Z,3.80
2019-02-19T18:35:49.717Z,4.10
2019-02-19T18:37:42.413Z,4.40
2019-02-19T18:38:42.280Z,4.00
2019-02-19T18:40:34.950Z,3.60
2019-02-19T18:41:34.833Z,4.20
2019-02-19T18:43:27.514Z,4.00
2019-02-19T18:44:27.382Z,4.20
2019-02-19T18:46:20.044Z,4.10
2019-02-19T18:47:19.929Z,4.30
2019-02-19T18:49:12.620Z,3.90
2019-02-19T18:50:12.478Z,4.10
2019-02-19T18:52:05.151Z,4.10
2019-02-19T18:53:05.049Z,4.30
2019-02-19T18:54:57.714Z,3.70
2019-02-19T18:55:57.591Z,3.80
2019-02-19T18:57:50.251Z,4.10
2019-02-19T18:58:50.136Z,4.10
2019-02-19T19:00:42.814Z,3.80
2019-02-19T19:01:42.684Z,4.30
2019-02-19T19:03:35.354Z,3.80
2019-02-19T19:04:35.244Z,3.10
2019-02-19T19:06:27.949Z,3.90
2019-02-19T19:07:27.799Z,3.50
2019-02-19T19:09:20.473Z,3.50
2019-02-19T19:10:20.356Z,3.30
2019-02-19T19:12:13.026Z,3.70
2019-02-19T19:13:12.894Z,3.90
2019-02-19T19:15:05.567Z,3.60
2019-02-19T19:16:05.461Z,3.80
2019-02-19T19:17:58.124Z,3.80
2019-02-19T19:18:58.002Z,3.60
2019-02-19T19:20:50.703Z,3.10
2019-02-19T19:21:50.596Z,3.90
2019-02-19T19:23:43.270Z,3.90
2019-02-19T19:24:43.140Z,3.60
2019-02-19T19:26:35.797Z,3.80
2019-02-19T19:27:35.688Z,3.50
2019-02-19T19:29:28.366Z,4.20
2019-02-19T19:30:28.239Z,4.10
2019-02-19T19:32:20.893Z,3.70
2019-02-19T19:33:20.795Z,3.70
2019-02-19T19:35:13.505Z,4.40
2019-02-19T19:36:13.383Z,3.50
2019-02-19T19:38:06.016Z,4.40
2019-02-19T19:39:05.905Z,4.40
2019-02-19T19:40:58.583Z,4.00
2019-02-19T19:41:58.456Z,4.00
2019-02-19T19:43:51.118Z,4.40
2019-02-19T19:44:51.011Z,3.90
2019-02-19T19:46:43.689Z,4.30
2019-02-19T19:47:43.564Z,4.80
2019-02-19T19:49:36.219Z,4.30
2019-02-19T19:50:36.109Z,4.60
2019-02-19T19:52:28.787Z,4.20
2019-02-19T19:53:28.658Z,4.40
2019-02-19T19:55:23.032Z,4.50
2019-02-19T19:56:21.210Z,4.50
2019-02-19T19:58:13.871Z,5.10
2019-02-19T19:59:13.758Z,4.40
2019-02-19T20:01:06.459Z,4.30
2019-02-19T20:02:06.320Z,4.60
2019-02-19T20:03:58.993Z,5.10
2019-02-19T20:04:58.875Z,4.90
2019-02-19T20:06:51.575Z,4.60
2019-02-19T20:07:51.429Z,4.60
2019-02-19T20:09:44.086Z,4.90
2019-02-19T20:10:43.974Z,4.30
2019-02-19T20:12:36.749Z,4.50
2019-02-19T20:13:36.540Z,4.50
2019-02-19T20:15:29.281Z,4.70
2019-02-19T20:16:29.160Z,5.20
2019-02-19T20:18:21.847Z,4.60
2019-02-19T20:19:21.720Z,5.30
2019-02-19T20:21:14.391Z,5.30
2019-02-19T20:22:14.272Z,5.70
2019-02-19T20:24:06.987Z,5.50
2019-02-19T20:25:06.849Z,5.60
2019-02-19T20:26:59.531Z,5.50
2019-02-19T20:27:59.399Z,5.30
2019-02-19T20:29:52.093Z,5.70
2019-02-19T20:30:51.978Z,5.60
2019-02-19T20:32:44.615Z,6.30
2019-02-19T20:33:44.491Z,5.50
2019-02-19T20:35:37.175Z,5.60
2019-02-19T20:36:37.046Z,5.80
2019-02-19T20:38:29.710Z,5.30
2019-02-19T20:39:29.596Z,5.00
2019-02-19T20:41:22.273Z,5.30
2019-02-19T20:42:22.146Z,5.30
2019-02-19T20:44:14.799Z,6.10
2019-02-19T20:45:14.693Z,6.40
2019-02-19T20:47:07.365Z,5.30
2019-02-19T20:48:07.246Z,6.20
2019-02-19T20:49:59.915Z,5.50
2019-02-19T20:50:59.800Z,5.30
2019-02-19T20:52:52.509Z,5.20
2019-02-19T20:53:52.383Z,5.50
2019-02-19T20:55:45.034Z,5.60
2019-02-19T20:56:44.927Z,5.40
2019-02-19T20:58:37.612Z,5.90
2019-02-19T20:59:37.479Z,5.80
2019-02-19T21:01:30.138Z,5.60
2019-02-19T21:02:30.024Z,4.60
2019-02-19T21:04:22.705Z,5.10
2019-02-19T21:05:22.576Z,5.50
2019-02-19T21:07:15.235Z,5.40
2019-02-19T21:08:15.127Z,5.70
2019-02-19T21:10:07.813Z,5.40
2019-02-19T21:11:07.673Z,5.70
2019-02-19T21:13:00.327Z,5.10
2019-02-19T21:14:00.222Z,5.20
2019-02-19T21:15:52.900Z,6.00
2019-02-19T21:16:52.764Z,5.30
2019-02-19T21:18:45.671Z,6.40
2019-02-19T21:19:45.782Z,6.00
2019-02-19T21:21:44.742Z,5.60
2019-02-19T21:22:37.863Z,5.60
2019-02-19T21:24:30.599Z,5.10
2019-02-19T21:25:31.271Z,5.60
2019-02-19T21:27:23.098Z,4.60
2019-02-19T21:28:22.967Z,5.00
2019-02-19T21:30:15.640Z,5.20
2019-02-19T21:31:15.519Z,5.50
2019-02-19T21:33:08.208Z,5.80
2019-02-19T21:34:08.060Z,5.60
2019-02-19T21:36:00.892Z,6.00
2019-02-19T21:37:00.627Z,4.70
2019-02-19T21:38:53.305Z,5.10
2019-02-19T21:39:53.174Z,5.60
2019-02-19T21:41:45.861Z,5.80
2019-02-19T21:42:45.732Z,5.50
2019-02-19T21:44:38.400Z,5.90
2019-02-19T21:45:38.286Z,5.40
2019-02-19T21:47:30.963Z,5.70
2019-02-19T21:48:30.826Z,5.30
2019-02-19T21:50:23.496Z,6.30
2019-02-19T21:51:23.383Z,6.30
2019-02-19T21:53:16.065Z,5.10
2019-02-19T21:54:15.969Z,5.60
2019-02-19T21:56:08.583Z,6.10
2019-02-19T21:57:08.479Z,5.20
2019-02-19T21:59:01.369Z,5.50
2019-02-19T22:00:01.099Z,5.90
2019-02-19T22:01:53.681Z,6.30
2019-02-19T22:02:53.661Z,5.80
2019-02-19T22:04:46.248Z,5.20
2019-02-19T22:05:46.128Z,5.80
2019-02-19T22:07:38.773Z,4.90
2019-02-19T22:08:38.663Z,5.60
2019-02-19T22:10:31.461Z,5.90
2019-02-19T22:11:31.332Z,5.80
2019-02-19T22:13:23.991Z,5.90
2019-02-19T22:14:23.875Z,5.60
2019-02-19T22:16:16.560Z,6.10
2019-02-19T22:17:16.430Z,6.30
2019-02-19T22:19:09.229Z,5.80
2019-02-19T22:20:08.976Z,6.40
2019-02-19T22:22:03.689Z,6.10
2019-02-19T22:23:01.521Z,5.70
2019-02-19T22:24:54.194Z,5.50
2019-02-19T22:25:54.084Z,5.90
2019-02-19T22:27:46.767Z,6.10
2019-02-19T22:28:46.630Z,5.70
2019-02-19T22:30:39.300Z,5.60
2019-02-19T22:31:39.178Z,5.90
2019-02-19T22:33:31.860Z,5.90
2019-02-19T22:34:31.730Z,5.80
2019-02-19T22:36:24.391Z,6.10
2019-02-19T22:37:24.274Z,6.50
2019-02-19T22:39:16.953Z,5.30
2019-02-19T22:40:16.823Z,5.80
2019-02-19T22:42:09.485Z,6.10
2019-02-19T22:43:09.373Z,6.60
2019-02-19T22:45:02.088Z,6.40
2019-02-19T22:46:01.923Z,6.50
2019-02-19T22:47:54.590Z,5.90
2019-02-19T22:48:54.473Z,6.70
2019-02-19T22:50:47.152Z,6.60
2019-02-19T22:51:47.028Z,5.90
2019-02-19T22:53:39.689Z,6.50
2019-02-19T22:54:39.570Z,6.60
2019-02-19T22:56:32.257Z,6.30
2019-02-19T22:57:32.123Z,6.60
2019-02-19T22:59:24.787Z,5.40
